Middleton, WI (53562)

3:41 PM CDT on August 27, 2015 (GMT -0500)
Middleton | | Change Station
CLOSE
Current Station
Airport
Location: Middleton,
Elevation: 928 ft
Nearby Weather Stations

Elev 928 ft 43.12 °N, 89.53 °W | Updated 26 minutes ago

Mostly Cloudy
Mostly Cloudy
77 °F
Feels Like 77 °F
N
7
Wind Variable Wind from South

Today
High -- | Low -- °F
--% Chance of Precip.
Yesterday
High -- | Low -- °F
Precip. -- in
6:16 AM 7:41 PM
Waxing Gibbous, 95% visible
Pressure 30.11 in
Visibility 10.0 miles
Clouds Mostly Cloudy 3400 ft
Dew Point 55 °F
Humidity 46%
Rainfall 0.00 in
Snow Depth Not available.
UV 3 out of 12
Pollen 10.10 out of 12
Air Quality Not available.
Flu Activity Not available.
METAR KC29 272015Z AUTO 18006KT 10SM BKN034 25/13 A3011 RMK AO1 T02500127
Pressure 30.11 in
Visibility 10.0 miles
Clouds Mostly Cloudy 3400 ft
Dew Point 55 °F
Humidity 46%
Rainfall 0.00 in
Snow Depth Not available.
UV 3 out of 12
Pollen 10.10 out of 12
Air Quality Not available.
Flu Activity Not available.
METAR KC29 272015Z AUTO 18006KT 10SM BKN034 25/13 A3011 RMK AO1 T02500127

10-Day Weather Forecast

×

Almanac

Astronomy

Aug. 27, 2015 Rise Set
Actual Time
Civil Twilight
Nautical Twilight
Astronomical Twilight
Moon
Length of Visible Light
Length of Day
Tomorrow will be .
, % of the Moon is Illuminated

Today's Extremes

State Highs State Lows

Community

WunderPhotos

Upload Photos

1,850,212 photos uploaded!

WunderBlogs® & News

Nearby

Air Quality

  Air Quality AQ Index Pollutant
Not available.

Snow Depth

Station Depth Elevation

Earthquake Activity

City Distance Mag. Time & Date
Minimum magnitude displayed is 2.5.

Coastal Water Temperatures

Place Temperature

Stations

Nearby Weather Stations

Station Location Temp. Windchill Dew Point Humidity Wind Precip. Elev Updated Type